Latest Weather Observations for Cowra

IDN60801

Issued at 10:52 pm EDT Monday 19 November 2018 (issued every 10 minutes, with the page automatically refreshed every 10 minutes)

About weather observations | Map of weather stations | Latest weather observations for NSW | Other Formats
Station Details ID: 065111 Name: COWRA AIRPORT AWS Lat: -33.84 Lon: 148.65 Height: 300.4 m
Data from the previous 72 hours. | See also: Recent months at Cowra
Date/Time
EDT
Temp
°C
App
Temp
°C
Dew
Point
°C
Rel
Hum
%
Delta-T
°C
Wind Press
QNH
hPa
Press
MSL
hPa
Rain since
9am
mm
Dir  Spd
km/h
Gust
km/h
Spd
kts
Gust
kts
19/10:30pm 20.6 19.1 9.2 48 6.1 S 7 9 4 5 1014.4 1013.4 0.0
19/10:00pm 20.8 20.5 8.8 46 6.4 CALM 0 0 0 0 1014.1 1013.1 0.0
19/09:30pm 22.9 21.3 8.6 40 7.7 E 7 9 4 5 1013.9 1012.9 0.0
19/09:00pm 22.9 22.6 8.6 40 7.7 CALM 0 9 0 5 1013.7 1012.6 0.0
19/08:30pm 23.2 22.7 7.7 37 8.2 CALM 0 7 0 4 1013.6 1012.5 0.0
19/08:00pm 24.9 24.4 8.0 34 9.1 CALM 0 0 0 0 1013.5 1012.4 0.0
19/07:30pm 26.5 25.9 7.5 30 10.3 CALM 0 0 0 0 1013.3 1012.3 0.0
19/07:00pm 27.1 26.5 7.5 29 10.6 CALM 0 0 0 0 1013.1 1012.1 0.0
19/06:30pm 27.3 25.5 7.2 28 10.8 S 6 7 3 4 1013.0 1012.0 0.0
19/06:00pm 27.9 26.1 7.2 27 11.2 WSW 6 7 3 4 1013.1 1012.1 0.0
19/05:30pm 28.2 26.4 8.0 28 11.1 SW 7 11 4 6 1013.2 1012.2 0.0
19/05:00pm 27.9 24.6 8.2 29 10.8 WNW 15 22 8 12 1013.3 1012.3 0.0
19/04:30pm 29.2 27.6 8.8 28 11.4 ENE 7 13 4 7 1013.6 1012.5 0.0
19/04:00pm 28.5 26.1 8.7 29 11.0 S 11 17 6 9 1014.0 1013.0 0.0
19/03:30pm 27.5 25.7 9.3 32 10.2 NE 9 13 5 7 1014.7 1013.7 0.0
19/03:00pm 27.0 25.4 8.9 32 10.0 SW 7 13 4 7 1015.2 1014.2 0.0
19/02:30pm 26.4 23.4 7.9 31 10.0 NNW 13 22 7 12 1015.7 1014.7 0.0
19/02:00pm 26.7 24.1 7.7 30 10.3 W 11 19 6 10 1016.1 1015.1 0.0
19/01:30pm 27.5 25.6 8.9 31 10.3 SW 9 17 5 9 1016.4 1015.4 0.0
19/01:00pm 26.7 24.4 9.1 33 9.8 W 11 20 6 11 1017.1 1016.1 0.0
19/12:30pm 26.8 24.7 9.6 34 9.6 NW 11 20 6 11 1017.6 1016.6 0.0
19/12:00pm 25.2 23.2 8.7 35 9.0 NNW 9 19 5 10 1018.2 1017.2 0.0
19/11:30am 23.8 20.9 8.2 37 8.4 NW 13 22 7 12 1018.8 1017.8 0.0
19/11:00am 24.1 21.6 8.1 36 8.6 NNW 11 17 6 9 1019.2 1018.2 0.0
19/10:30am 23.1 20.4 7.2 36 8.4 N 11 17 6 9 1019.6 1018.7 0.0
19/10:00am 22.6 20.7 7.6 38 7.9 NE 7 13 4 7 1020.0 1019.1 0.0
19/09:30am 21.5 19.4 8.4 43 7.0 ENE 9 17 5 9 1020.5 1019.5 0.0
19/09:00am 20.1 17.9 7.8 45 6.4 ESE 9 13 5 7 1020.8 1019.8 0.0
19/08:30am 18.7 16.0 7.2 47 5.9 E 11 15 6 8 1020.9 1019.9 0.0
19/08:00am 17.5 14.4 7.3 51 5.2 E 13 19 7 10 1020.8 1019.8 0.0
19/07:30am 16.1 13.2 6.5 53 4.8 ESE 11 17 6 9 1020.9 1019.9 0.0
19/07:00am 15.2 12.4 7.0 58 4.1 ESE 11 17 6 9 1020.8 1019.8 0.0
19/06:30am 13.9 11.2 7.4 65 3.2 E 11 15 6 8 1020.7 1019.7 0.0
19/06:00am 13.1 11.1 6.9 66 3.0 NE 7 9 4 5 1020.5 1019.5 0.0
19/05:30am 13.7 10.9 7.0 64 3.3 ENE 11 20 6 11 1020.2 1019.3 0.0
19/05:00am 11.7 9.2 6.6 71 2.5 N 9 11 5 6 1020.0 1019.1 0.0
19/04:30am 13.5 12.0 6.8 64 3.3 ESE 4 9 2 5 1019.5 1018.6 0.0
19/04:00am 13.3 11.3 7.3 67 3.0 ESE 7 11 4 6 1019.3 1018.3 0.0
19/03:30am 13.0 11.8 6.6 65 3.1 ESE 2 6 1 3 1019.4 1018.4 0.0
19/03:00am 14.2 12.5 7.5 64 3.3 SE 6 7 3 4 1019.7 1018.8 0.0
19/02:30am 14.6 12.3 7.6 63 3.5 E 9 11 5 6 1019.9 1019.0 0.0
19/02:00am 14.8 12.7 8.1 64 3.4 ESE 9 15 5 8 1020.1 1019.2 0.0
19/01:30am 14.9 13.3 7.9 63 3.5 E 6 7 3 4 1020.5 1019.5 0.0
19/01:00am 15.6 13.5 8.1 61 3.8 ESE 9 13 5 7 1020.5 1019.5 0.0
19/12:30am 16.2 13.3 8.2 59 4.1 E 13 20 7 11 1020.6 1019.6 0.0
19/12:00am 16.4 13.5 8.1 58 4.3 E 13 20 7 11 1020.5 1019.5 0.0
 
Date/Time
EDT
Temp
°C
App
Temp
°C
Dew
Point
°C
Rel
Hum
%
Delta-T
°C
Wind Press
QNH
hPa
Press
MSL
hPa
Rain since
9am
mm
Dir  Spd
km/h
Gust
km/h
Spd
kts
Gust
kts
18/11:30pm 16.9 12.7 8.1 56 4.5 E 20 30 11 16 1020.1 1019.2 0.0
18/11:00pm 17.0 14.0 7.6 54 4.8 E 13 20 7 11 1020.0 1019.1 0.0
18/10:30pm 17.4 13.6 7.5 52 5.1 E 17 26 9 14 1020.0 1019.1 0.0
18/10:00pm 18.1 13.9 7.5 50 5.4 E 19 28 10 15 1019.6 1018.7 0.0
18/09:30pm 18.7 14.0 7.8 49 5.7 ENE 22 37 12 20 1019.2 1018.2 0.0
18/09:00pm 20.1 15.8 7.8 45 6.4 ENE 20 35 11 19 1018.7 1017.7 0.0
18/08:30pm 21.3 16.9 7.5 41 7.2 ENE 20 30 11 16 1018.3 1017.3 0.0
18/08:00pm 22.3 18.1 7.3 38 7.9 NE 19 32 10 17 1018.0 1017.0 0.0
18/07:30pm 23.4 19.8 6.7 34 8.7 NE 15 22 8 12 1017.7 1016.7 0.0
18/07:00pm 25.0 21.9 7.2 32 9.5 ENE 13 20 7 11 1017.4 1016.4 0.0
18/06:30pm 25.4 22.0 7.5 32 9.6 NE 15 22 8 12 1017.3 1016.3 0.0
18/06:00pm 25.2 22.1 7.3 32 9.5 E 13 20 7 11 1017.2 1016.2 0.0
18/05:30pm 25.6 22.4 6.8 30 10.0 ENE 13 22 7 12 1017.4 1016.4 0.0
18/05:00pm 26.1 21.8 7.2 30 10.1 ENE 19 28 10 15 1017.4 1016.4 0.0
18/04:30pm 25.8 22.0 7.4 31 9.9 NE 17 30 9 16 1017.4 1016.4 0.0
18/04:00pm 26.4 22.9 7.4 30 10.2 E 15 24 8 13 1017.6 1016.6 0.0
18/03:30pm 25.5 21.6 7.1 31 9.8 ENE 17 20 9 11 1018.0 1017.0 0.0
18/03:00pm 25.6 21.1 6.3 29 10.1 NNE 19 28 10 15 1018.3 1017.3 0.0
18/02:30pm 26.3 22.9 5.8 27 10.7 ENE 13 19 7 10 1018.6 1017.6 0.0
18/02:00pm 27.1 24.4 7.5 29 10.6 NE 11 17 6 9 1018.9 1017.9 0.0
18/01:30pm 25.0 21.5 7.2 32 9.5 ENE 15 19 8 10 1019.4 1018.4 0.0
18/01:00pm 25.3 22.2 7.4 32 9.6 E 13 20 7 11 1019.7 1018.8 0.0
18/12:30pm 25.0 21.5 7.2 32 9.5 ENE 15 28 8 15 1020.0 1019.1 0.0
18/12:00pm 25.1 21.4 8.1 34 9.2 ENE 17 26 9 14 1020.6 1019.6 0.0
18/11:30am 23.7 20.0 7.8 36 8.5 ENE 17 32 9 17 1021.1 1020.1 0.0
18/11:00am 23.4 19.8 8.3 38 8.1 NE 17 26 9 14 1021.5 1020.5 0.0
18/10:30am 22.7 19.5 8.4 40 7.7 ENE 15 24 8 13 1021.6 1020.6 0.0
18/10:00am 20.9 17.6 7.9 43 6.8 E 15 24 8 13 1021.8 1020.8 0.0
18/09:30am 20.1 17.1 7.5 44 6.6 SE 13 22 7 12 1021.9 1020.9 0.0
18/09:00am 19.0 15.2 7.4 47 6.0 SE 17 26 9 14 1022.0 1021.0 0.0
18/08:30am 18.2 14.3 7.3 49 5.6 ESE 17 28 9 15 1022.0 1021.0 0.0
18/08:00am 18.0 15.0 7.7 51 5.3 ESE 13 20 7 11 1021.9 1020.9 0.0
18/07:30am 17.0 14.4 7.9 55 4.7 ESE 11 17 6 9 1021.8 1020.8 0.0
18/07:00am 15.4 13.8 8.9 65 3.4 S 7 11 4 6 1021.7 1020.7 0.0
18/06:30am 13.3 11.5 8.0 70 2.7 S 7 9 4 5 1021.4 1020.4 0.0
18/06:00am 13.2 12.6 7.4 68 2.9 CALM 0 0 0 0 1021.2 1020.2 0.0
18/05:30am 13.5 11.2 7.5 67 3.0 SE 9 13 5 7 1020.8 1019.8 0.0
18/05:00am 13.6 11.9 7.4 66 3.1 SE 6 9 3 5 1020.8 1019.8 0.0
18/04:30am 14.2 11.9 7.5 64 3.4 SE 9 20 5 11 1020.6 1019.6 0.0
18/04:00am 14.2 12.0 7.9 66 3.2 SE 9 13 5 7 1020.6 1019.6 0.0
18/03:30am 14.5 12.3 7.8 64 3.4 SE 9 13 5 7 1020.7 1019.7 0.0
18/03:00am 14.6 12.5 8.1 65 3.3 SSE 9 13 5 7 1020.7 1019.7 0.0
18/02:30am 14.7 13.0 8.2 65 3.3 SE 7 11 4 6 1020.7 1019.7 0.0
18/02:00am 15.1 13.0 8.1 63 3.6 SE 9 13 5 7 1020.9 1019.9 0.0
18/01:30am 15.6 12.7 8.1 61 3.8 SE 13 17 7 9 1021.0 1020.0 0.0
18/01:00am 16.0 13.1 8.0 59 4.1 SE 13 19 7 10 1021.2 1020.2 0.0
18/12:30am 16.2 13.3 8.2 59 4.1 ESE 13 19 7 10 1021.1 1020.1 0.0
18/12:00am 16.4 14.3 8.4 59 4.1 SE 9 13 5 7 1021.1 1020.1 0.0
 
Date/Time
EDT
Temp
°C
App
Temp
°C
Dew
Point
°C
Rel
Hum
%
Delta-T
°C
Wind Press
QNH
hPa
Press
MSL
hPa
Rain since
9am
mm
Dir  Spd
km/h
Gust
km/h
Spd
kts
Gust
kts
17/11:30pm 17.1 14.4 8.8 58 4.3 ESE 13 20 7 11 1020.9 1019.9 0.0
17/11:00pm 17.6 14.6 9.2 58 4.4 ESE 15 24 8 13 1020.7 1019.7 0.0
17/10:30pm 18.2 14.5 9.3 56 4.7 ESE 19 32 10 17 1020.5 1019.5 0.0
17/10:00pm 18.8 15.1 9.3 54 5.1 ESE 19 33 10 18 1020.1 1019.2 0.0
17/09:30pm 19.6 15.6 9.2 51 5.6 ESE 20 28 11 15 1019.6 1018.7 0.0
17/09:00pm 20.2 16.5 9.5 50 5.8 ESE 19 33 10 18 1019.2 1018.2 0.0
17/08:30pm 21.0 17.1 9.3 47 6.3 ESE 20 30 11 16 1018.6 1017.6 0.0
17/08:00pm 22.2 18.2 9.0 43 7.1 ESE 20 32 11 17 1018.1 1017.1 0.0
17/07:30pm 23.0 19.0 9.0 41 7.6 E 20 32 11 17 1017.5 1016.5 0.0
17/07:00pm 23.9 19.1 8.7 38 8.2 ESE 24 35 13 19 1017.0 1016.0 0.0
17/06:30pm 25.0 20.9 8.5 35 9.0 ESE 20 33 11 18 1016.4 1015.4 0.0
17/06:00pm 26.1 22.7 9.0 34 9.4 SE 17 28 9 15 1016.0 1015.0 0.0
17/05:30pm 25.4 21.4 8.4 34 9.3 ESE 19 30 10 16 1015.8 1014.8 0.0
17/05:00pm 27.7 24.2 7.0 27 11.1 SE 15 24 8 13 1015.4 1014.4 0.0
17/04:30pm 28.1 25.0 7.4 27 11.2 SSE 13 22 7 12 1015.4 1014.4 0.0
17/04:00pm 27.1 23.6 7.0 28 10.8 SSE 15 20 8 11 1015.6 1014.6 0.0
17/03:30pm 26.6 23.0 6.6 28 10.6 SSE 15 26 8 14 1015.7 1014.7 0.0
17/03:00pm 26.8 24.0 6.8 28 10.7 SSE 11 20 6 11 1016.0 1015.0 0.0
17/02:30pm 27.7 24.7 7.5 28 11.0 ESE 13 24 7 13 1016.3 1015.3 0.0
17/02:00pm 26.2 23.0 6.8 29 10.3 SSE 13 19 7 10 1016.5 1015.5 0.0
17/01:30pm 26.7 22.9 3.9 23 11.6 NE 13 22 7 12 1016.8 1015.9 0.0
17/01:00pm 25.8 23.8 8.8 34 9.3 E 9 20 5 11 1017.3 1016.3 0.0
17/12:30pm 25.2 22.4 9.9 38 8.5 ESE 15 20 8 11 1017.6 1016.6 0.0
17/12:00pm 24.4 21.9 11.0 43 7.6 ESE 15 22 8 12 1018.0 1017.0 0.0
17/11:30am 23.7 21.2 11.1 45 7.1 ESE 15 22 8 12 1018.2 1017.2 0.0
17/11:00am 23.0 20.3 11.7 49 6.4 ESE 17 26 9 14 1018.5 1017.5 0.0
17/10:30am 21.3 18.0 10.8 51 5.8 SE 19 32 10 17 1018.6 1017.6 0.0
17/10:00am 21.5 18.8 11.8 54 5.5 ESE 17 24 9 13 1018.6 1017.6 0.0
17/09:30am 20.3 17.4 11.0 55 5.2 SE 17 26 9 14 1018.6 1017.6 0.0
17/09:00am 19.9 17.4 11.1 57 4.9 SE 15 20 8 11 1018.4 1017.4 0.0
17/08:30am 18.2 15.7 11.0 63 4.0 SE 15 20 8 11 1018.2 1017.2 0.0
17/08:00am 17.6 15.1 11.2 66 3.5 ESE 15 22 8 12 1018.1 1017.1 0.0
17/07:30am 15.8 14.8 11.0 73 2.6 SSE 7 13 4 7 1018.0 1017.0 0.0
17/07:00am 14.2 13.1 10.0 76 2.2 SE 6 9 3 5 1017.8 1016.8 0.0
17/06:30am 12.7 11.3 9.7 82 1.6 ESE 7 9 4 5 1017.6 1016.6 0.0
17/06:00am 12.1 10.4 9.8 86 1.2 SSE 9 11 5 6 1017.2 1016.2 0.0
17/05:30am 11.3 9.9 9.0 86 1.2 S 6 9 3 5 1016.7 1015.8 0.0
17/05:00am 10.7 10.1 7.4 80 1.6 CALM 0 7 0 4 1016.2 1015.2 0.0
17/04:30am 12.9 11.0 9.2 78 1.9 ESE 9 13 5 7 1015.9 1014.9 0.0
17/04:00am 12.3 10.5 7.0 70 2.6 ESE 6 9 3 5 1015.9 1014.9 0.0
17/03:30am 13.5 11.9 8.1 70 2.7 SE 6 9 3 5 1016.0 1015.0 0.0
17/03:00am 14.0 12.7 10.0 77 2.1 E 7 9 4 5 1016.0 1015.0 0.0
17/02:30am 13.4 12.6 9.5 77 2.0 ESE 4 9 2 5 1016.0 1015.0 0.0
17/02:00am 14.2 13.0 9.4 73 2.5 ESE 6 7 3 4 1016.2 1015.2 0.0
17/01:30am 15.1 14.3 9.7 70 2.8 E 4 7 2 4 1016.5 1015.5 0.0
17/01:00am 15.9 14.1 9.3 65 3.5 ESE 9 13 5 7 1016.7 1015.8 0.0
17/12:30am 15.6 13.4 6.3 54 4.6 SSE 7 11 4 6 1017.1 1016.1 0.0
17/12:00am 16.8 14.6 5.4 47 5.6 ESE 6 11 3 6 1017.1 1016.1 0.0
 
Date/Time
EDT
Temp
°C
App
Temp
°C
Dew
Point
°C
Rel
Hum
%
Delta-T
°C
Wind Press
QNH
hPa
Press
MSL
hPa
Rain since
9am
mm
Dir  Spd
km/h
Gust
km/h
Spd
kts
Gust
kts
16/11:30pm 17.4 14.3 3.7 40 6.5 SE 9 15 5 8 1017.1 1016.1 0.0
16/11:00pm 18.0 15.0 2.3 35 7.3 SSE 7 9 4 5 1016.8 1015.9 0.0

Other Formats:

Comma delimited format used in spreadsheet applications
http://www.bom.gov.au/fwo/IDN60801/IDN60801.95721.axf

JavaScript Object Notation format (JSON) in row-major order
http://www.bom.gov.au/fwo/IDN60801/IDN60801.95721.json